This is the latest recevied weather packets stored in our database for station/object LW9ERO-3. If no packets are shown the sender has not sent any weather packets the latest 10 day(s).
| Time | Temp. | Humidity | Pressure | Rain* | Wind** | Luminosity | Snow |
|---|---|---|---|---|---|---|---|
| 1787785203 | 16.11° C | 59% | 1006 hPa | 0 mm | - | - | - |
| 1787784843 | 16.11° C | 59% | 1006.2 hPa | 0 mm | - | - | - |
| 1787784303 | 16.11° C | 58% | 1006.1 hPa | 0 mm | - | - | - |
| 1787783763 | 6.11° C | 76% | 1019.4 hPa | 0 mm | - | - | - |
| 1787783223 | 16.67° C | 58% | 1006 hPa | 0 mm | - | - | - |
| 1787782683 | 16.67° C | 58% | 1005.8 hPa | 0 mm | - | - | - |
| 1787782144 | 16.67° C | 58% | 1006.1 hPa | 0 mm | - | - | - |
| 1787781604 | 16.67° C | 57% | 1005.9 hPa | 0 mm | - | - | - |
| 1787781243 | 16.67° C | 57% | 1005.7 hPa | 0 mm | - | - | - |
| 1787780703 | 17.22° C | 55% | 1005.6 hPa | 0 mm | - | - | - |
| 1787780164 | 17.22° C | 54% | 1005.5 hPa | 0 mm | - | - | - |
| 1787779623 | 17.22° C | 53% | 1005.7 hPa | 0 mm | - | - | - |
| 1787779084 | 17.22° C | 53% | 1005.3 hPa | 0 mm | - | - | - |
| 1787778544 | 17.78° C | 52% | 1005.2 hPa | 0 mm | - | - | - |
| 1787778004 | 17.78° C | 51% | 1005.4 hPa | 0 mm | - | - | - |
| 1787777648 | 17.78° C | 51% | 1005.6 hPa | 0 mm | - | - | - |
| 1787777104 | 18.33° C | 52% | 1005.3 hPa | 0 mm | - | - | - |
| 1787776564 | 18.33° C | 51% | 1004.9 hPa | 0 mm | - | - | - |
| 1787776023 | 18.33° C | 51% | 1004.9 hPa | 0 mm | - | - | - |
| 1787775483 | 18.33° C | 50% | 1004.9 hPa | 0 mm | - | - | - |
| 1787774944 | 18.33° C | 49% | 1004.9 hPa | 0 mm | - | - | - |
| 1787774403 | 18.33° C | 50% | 1004.9 hPa | 0 mm | - | - | - |
| 1787774043 | 18.33° C | 49% | 1005.1 hPa | 0 mm | - | - | - |
| 1787773503 | 18.33° C | 50% | 1005.2 hPa | 0 mm | - | - | - |
| 1787772963 | 18.33° C | 51% | 1005 hPa | 0 mm | - | - | - |
* Rain latest hour (hover to see other rain measurements)
** Current wind speed in m/s (hover to see current wind gust speed)